sensor_id;sensor_type;location;lat;lon;timestamp;P1;durP1;ratioP1;P2;durP2;ratioP2
77938;SDS011;67136;47.546;21.630;2023-03-14T00:02:02;11.80;;;6.07;;
77938;SDS011;67136;47.546;21.630;2023-03-14T00:05:05;12.93;;;6.87;;
77938;SDS011;67136;47.546;21.630;2023-03-14T00:08:12;14.57;;;7.00;;
77938;SDS011;67136;47.546;21.630;2023-03-14T00:11:16;13.35;;;6.07;;
77938;SDS011;67136;47.546;21.630;2023-03-14T00:14:23;14.90;;;6.20;;
77938;SDS011;67136;47.546;21.630;2023-03-14T00:17:26;12.20;;;5.65;;
77938;SDS011;67136;47.546;21.630;2023-03-14T00:20:29;14.80;;;6.40;;
77938;SDS011;67136;47.546;21.630;2023-03-14T00:23:32;12.48;;;5.78;;
77938;SDS011;67136;47.546;21.630;2023-03-14T00:26:36;13.57;;;6.87;;
77938;SDS011;67136;47.546;21.630;2023-03-14T00:29:42;14.48;;;7.62;;
77938;SDS011;67136;47.546;21.630;2023-03-14T00:32:44;14.95;;;6.70;;
77938;SDS011;67136;47.546;21.630;2023-03-14T00:35:58;13.27;;;6.97;;
77938;SDS011;67136;47.546;21.630;2023-03-14T00:39:03;13.85;;;6.62;;
77938;SDS011;67136;47.546;21.630;2023-03-14T00:42:06;14.55;;;7.10;;
77938;SDS011;67136;47.546;21.630;2023-03-14T00:45:08;15.13;;;6.82;;
77938;SDS011;67136;47.546;21.630;2023-03-14T00:48:12;15.07;;;6.95;;
77938;SDS011;67136;47.546;21.630;2023-03-14T00:51:15;13.63;;;6.10;;
77938;SDS011;67136;47.546;21.630;2023-03-14T00:54:19;13.52;;;6.32;;
77938;SDS011;67136;47.546;21.630;2023-03-14T00:57:22;14.55;;;6.20;;
77938;SDS011;67136;47.546;21.630;2023-03-14T01:00:24;13.60;;;6.43;;
77938;SDS011;67136;47.546;21.630;2023-03-14T01:03:27;13.55;;;6.50;;
77938;SDS011;67136;47.546;21.630;2023-03-14T01:06:30;16.63;;;6.80;;
77938;SDS011;67136;47.546;21.630;2023-03-14T01:09:32;12.10;;;6.28;;
77938;SDS011;67136;47.546;21.630;2023-03-14T01:12:36;9.77;;;5.68;;
77938;SDS011;67136;47.546;21.630;2023-03-14T01:15:39;14.07;;;6.70;;
77938;SDS011;67136;47.546;21.630;2023-03-14T01:18:44;14.23;;;6.65;;
77938;SDS011;67136;47.546;21.630;2023-03-14T01:21:47;13.23;;;6.57;;
77938;SDS011;67136;47.546;21.630;2023-03-14T01:24:50;14.05;;;6.40;;
77938;SDS011;67136;47.546;21.630;2023-03-14T01:27:52;12.52;;;6.15;;
77938;SDS011;67136;47.546;21.630;2023-03-14T01:30:55;13.38;;;6.10;;
77938;SDS011;67136;47.546;21.630;2023-03-14T01:33:58;12.88;;;6.37;;
77938;SDS011;67136;47.546;21.630;2023-03-14T01:37:01;15.30;;;6.30;;
77938;SDS011;67136;47.546;21.630;2023-03-14T01:40:04;14.63;;;6.68;;
77938;SDS011;67136;47.546;21.630;2023-03-14T01:43:15;14.10;;;6.22;;
77938;SDS011;67136;47.546;21.630;2023-03-14T01:46:34;13.15;;;6.40;;
77938;SDS011;67136;47.546;21.630;2023-03-14T01:49:38;13.60;;;6.68;;
77938;SDS011;67136;47.546;21.630;2023-03-14T01:52:46;14.63;;;6.63;;
77938;SDS011;67136;47.546;21.630;2023-03-14T01:55:55;11.80;;;6.07;;
77938;SDS011;67136;47.546;21.630;2023-03-14T01:58:59;13.75;;;6.62;;
77938;SDS011;67136;47.546;21.630;2023-03-14T02:02:07;14.68;;;7.00;;
77938;SDS011;67136;47.546;21.630;2023-03-14T02:05:15;14.85;;;6.45;;
77938;SDS011;67136;47.546;21.630;2023-03-14T02:08:23;12.60;;;5.30;;
77938;SDS011;67136;47.546;21.630;2023-03-14T02:11:28;10.65;;;5.10;;
77938;SDS011;67136;47.546;21.630;2023-03-14T02:14:34;10.45;;;5.05;;
77938;SDS011;67136;47.546;21.630;2023-03-14T02:17:40;10.48;;;5.00;;
77938;SDS011;67136;47.546;21.630;2023-03-14T02:21:05;9.02;;;4.43;;
77938;SDS011;67136;47.546;21.630;2023-03-14T02:27:54;8.68;;;4.25;;
77938;SDS011;67136;47.546;21.630;2023-03-14T02:30:57;11.93;;;5.10;;
77938;SDS011;67136;47.546;21.630;2023-03-14T02:34:00;11.43;;;4.60;;
77938;SDS011;67136;47.546;21.630;2023-03-14T02:37:04;10.43;;;4.80;;
77938;SDS011;67136;47.546;21.630;2023-03-14T02:40:07;10.93;;;4.50;;
77938;SDS011;67136;47.546;21.630;2023-03-14T02:43:11;10.38;;;5.18;;
77938;SDS011;67136;47.546;21.630;2023-03-14T02:46:18;7.55;;;3.67;;
77938;SDS011;67136;47.546;21.630;2023-03-14T02:49:24;10.38;;;4.37;;
77938;SDS011;67136;47.546;21.630;2023-03-14T02:52:31;8.45;;;3.83;;
77938;SDS011;67136;47.546;21.630;2023-03-14T02:55:34;7.70;;;4.03;;
77938;SDS011;67136;47.546;21.630;2023-03-14T02:58:38;9.40;;;3.90;;
77938;SDS011;67136;47.546;21.630;2023-03-14T03:01:42;9.23;;;4.07;;
77938;SDS011;67136;47.546;21.630;2023-03-14T03:04:44;9.18;;;4.47;;
77938;SDS011;67136;47.546;21.630;2023-03-14T03:07:47;12.75;;;4.85;;
77938;SDS011;67136;47.546;21.630;2023-03-14T03:10:50;7.27;;;2.97;;
77938;SDS011;67136;47.546;21.630;2023-03-14T03:13:53;12.07;;;4.55;;
77938;SDS011;67136;47.546;21.630;2023-03-14T03:16:56;9.38;;;3.92;;
77938;SDS011;67136;47.546;21.630;2023-03-14T03:19:58;8.50;;;3.85;;
77938;SDS011;67136;47.546;21.630;2023-03-14T03:23:01;10.10;;;4.70;;
77938;SDS011;67136;47.546;21.630;2023-03-14T03:26:04;9.80;;;4.53;;
77938;SDS011;67136;47.546;21.630;2023-03-14T03:29:07;7.68;;;4.10;;
77938;SDS011;67136;47.546;21.630;2023-03-14T03:32:10;9.38;;;4.72;;
77938;SDS011;67136;47.546;21.630;2023-03-14T03:35:12;8.25;;;3.78;;
77938;SDS011;67136;47.546;21.630;2023-03-14T03:38:16;8.63;;;4.10;;
77938;SDS011;67136;47.546;21.630;2023-03-14T03:41:19;8.97;;;3.87;;
77938;SDS011;67136;47.546;21.630;2023-03-14T03:44:22;6.68;;;3.60;;
77938;SDS011;67136;47.546;21.630;2023-03-14T03:47:26;8.27;;;3.67;;
77938;SDS011;67136;47.546;21.630;2023-03-14T03:50:31;6.12;;;2.97;;
77938;SDS011;67136;47.546;21.630;2023-03-14T03:53:33;7.47;;;3.60;;
77938;SDS011;67136;47.546;21.630;2023-03-14T03:56:36;5.97;;;2.90;;
77938;SDS011;67136;47.546;21.630;2023-03-14T03:59:40;5.28;;;3.15;;
77938;SDS011;67136;47.546;21.630;2023-03-14T04:02:43;7.37;;;2.92;;
77938;SDS011;67136;47.546;21.630;2023-03-14T04:05:46;7.65;;;2.90;;
77938;SDS011;67136;47.546;21.630;2023-03-14T04:09:04;6.65;;;3.10;;
77938;SDS011;67136;47.546;21.630;2023-03-14T04:12:07;4.03;;;2.00;;
77938;SDS011;67136;47.546;21.630;2023-03-14T04:15:10;4.47;;;2.37;;
77938;SDS011;67136;47.546;21.630;2023-03-14T04:18:13;5.85;;;2.85;;
77938;SDS011;67136;47.546;21.630;2023-03-14T04:21:16;5.53;;;2.50;;
77938;SDS011;67136;47.546;21.630;2023-03-14T04:24:20;7.75;;;2.72;;
77938;SDS011;67136;47.546;21.630;2023-03-14T04:27:23;5.10;;;2.50;;
77938;SDS011;67136;47.546;21.630;2023-03-14T04:30:26;6.45;;;2.75;;
77938;SDS011;67136;47.546;21.630;2023-03-14T04:33:30;4.97;;;2.42;;
77938;SDS011;67136;47.546;21.630;2023-03-14T04:36:32;5.87;;;3.17;;
77938;SDS011;67136;47.546;21.630;2023-03-14T04:39:36;5.30;;;2.58;;
77938;SDS011;67136;47.546;21.630;2023-03-14T04:42:40;4.90;;;2.17;;
77938;SDS011;67136;47.546;21.630;2023-03-14T04:45:43;6.05;;;2.75;;
77938;SDS011;67136;47.546;21.630;2023-03-14T04:48:46;5.80;;;2.30;;
77938;SDS011;67136;47.546;21.630;2023-03-14T04:51:51;5.40;;;2.20;;
77938;SDS011;67136;47.546;21.630;2023-03-14T04:54:54;4.93;;;2.15;;
77938;SDS011;67136;47.546;21.630;2023-03-14T04:57:58;4.00;;;1.50;;
77938;SDS011;67136;47.546;21.630;2023-03-14T05:01:02;3.17;;;1.50;;
77938;SDS011;67136;47.546;21.630;2023-03-14T05:04:06;2.67;;;1.40;;
77938;SDS011;67136;47.546;21.630;2023-03-14T05:07:09;3.97;;;1.60;;
77938;SDS011;67136;47.546;21.630;2023-03-14T05:10:15;2.55;;;1.45;;
77938;SDS011;67136;47.546;21.630;2023-03-14T05:13:19;3.27;;;1.50;;
77938;SDS011;67136;47.546;21.630;2023-03-14T05:16:22;3.35;;;1.60;;
77938;SDS011;67136;47.546;21.630;2023-03-14T05:19:25;2.75;;;1.80;;
77938;SDS011;67136;47.546;21.630;2023-03-14T05:22:29;5.60;;;1.67;;
77938;SDS011;67136;47.546;21.630;2023-03-14T05:25:32;2.90;;;1.80;;
77938;SDS011;67136;47.546;21.630;2023-03-14T05:28:34;4.67;;;1.90;;
77938;SDS011;67136;47.546;21.630;2023-03-14T05:31:38;4.15;;;2.08;;
77938;SDS011;67136;47.546;21.630;2023-03-14T05:34:40;5.22;;;2.05;;
77938;SDS011;67136;47.546;21.630;2023-03-14T05:37:43;3.37;;;1.87;;
77938;SDS011;67136;47.546;21.630;2023-03-14T05:40:46;3.62;;;2.03;;
77938;SDS011;67136;47.546;21.630;2023-03-14T05:43:49;4.87;;;1.70;;
77938;SDS011;67136;47.546;21.630;2023-03-14T05:46:52;7.22;;;1.92;;
77938;SDS011;67136;47.546;21.630;2023-03-14T05:49:55;3.33;;;1.70;;
77938;SDS011;67136;47.546;21.630;2023-03-14T05:52:58;4.25;;;1.77;;
77938;SDS011;67136;47.546;21.630;2023-03-14T05:56:02;3.87;;;1.98;;
77938;SDS011;67136;47.546;21.630;2023-03-14T05:59:05;3.67;;;2.10;;
77938;SDS011;67136;47.546;21.630;2023-03-14T06:02:11;3.33;;;1.70;;
77938;SDS011;67136;47.546;21.630;2023-03-14T06:05:15;3.45;;;1.90;;
77938;SDS011;67136;47.546;21.630;2023-03-14T06:08:18;5.72;;;1.30;;
77938;SDS011;67136;47.546;21.630;2023-03-14T06:11:20;2.65;;;1.50;;
77938;SDS011;67136;47.546;21.630;2023-03-14T06:14:23;4.63;;;1.40;;
77938;SDS011;67136;47.546;21.630;2023-03-14T06:17:26;3.15;;;1.37;;
77938;SDS011;67136;47.546;21.630;2023-03-14T06:20:29;3.78;;;1.70;;
77938;SDS011;67136;47.546;21.630;2023-03-14T06:23:32;3.08;;;1.50;;
77938;SDS011;67136;47.546;21.630;2023-03-14T06:26:36;2.45;;;1.52;;
77938;SDS011;67136;47.546;21.630;2023-03-14T06:29:38;3.60;;;1.63;;
77938;SDS011;67136;47.546;21.630;2023-03-14T06:32:42;5.45;;;1.62;;
77938;SDS011;67136;47.546;21.630;2023-03-14T06:35:45;3.35;;;1.60;;
77938;SDS011;67136;47.546;21.630;2023-03-14T06:38:48;2.80;;;1.50;;
77938;SDS011;67136;47.546;21.630;2023-03-14T06:41:52;3.83;;;1.87;;
77938;SDS011;67136;47.546;21.630;2023-03-14T06:44:55;3.13;;;1.60;;
77938;SDS011;67136;47.546;21.630;2023-03-14T06:48:00;4.18;;;1.80;;
77938;SDS011;67136;47.546;21.630;2023-03-14T06:51:05;4.68;;;1.90;;
77938;SDS011;67136;47.546;21.630;2023-03-14T06:54:08;5.07;;;2.55;;
77938;SDS011;67136;47.546;21.630;2023-03-14T06:57:11;4.95;;;1.95;;
77938;SDS011;67136;47.546;21.630;2023-03-14T07:00:14;5.23;;;2.40;;
77938;SDS011;67136;47.546;21.630;2023-03-14T07:03:17;5.43;;;2.80;;
77938;SDS011;67136;47.546;21.630;2023-03-14T07:06:20;6.37;;;3.08;;
77938;SDS011;67136;47.546;21.630;2023-03-14T07:09:23;7.95;;;2.70;;
77938;SDS011;67136;47.546;21.630;2023-03-14T07:12:26;4.10;;;1.83;;
77938;SDS011;67136;47.546;21.630;2023-03-14T07:15:29;4.57;;;2.00;;
77938;SDS011;67136;47.546;21.630;2023-03-14T07:18:32;5.30;;;2.25;;
77938;SDS011;67136;47.546;21.630;2023-03-14T07:21:38;5.03;;;1.98;;
77938;SDS011;67136;47.546;21.630;2023-03-14T07:24:41;5.90;;;2.37;;
77938;SDS011;67136;47.546;21.630;2023-03-14T07:27:44;14.15;;;2.60;;
77938;SDS011;67136;47.546;21.630;2023-03-14T07:30:48;5.57;;;2.10;;
77938;SDS011;67136;47.546;21.630;2023-03-14T07:33:51;5.43;;;2.08;;
77938;SDS011;67136;47.546;21.630;2023-03-14T07:36:54;6.60;;;2.55;;
77938;SDS011;67136;47.546;21.630;2023-03-14T07:39:57;10.43;;;2.00;;
77938;SDS011;67136;47.546;21.630;2023-03-14T07:43:00;4.90;;;2.35;;
77938;SDS011;67136;47.546;21.630;2023-03-14T07:46:03;5.37;;;2.10;;
77938;SDS011;67136;47.546;21.630;2023-03-14T07:49:05;4.57;;;1.95;;
77938;SDS011;67136;47.546;21.630;2023-03-14T07:52:08;4.65;;;2.20;;
77938;SDS011;67136;47.546;21.630;2023-03-14T07:55:11;5.55;;;1.80;;
77938;SDS011;67136;47.546;21.630;2023-03-14T07:58:15;3.22;;;2.05;;
77938;SDS011;67136;47.546;21.630;2023-03-14T08:01:18;5.47;;;1.80;;
77938;SDS011;67136;47.546;21.630;2023-03-14T08:04:21;3.97;;;1.87;;
77938;SDS011;67136;47.546;21.630;2023-03-14T08:07:24;4.95;;;1.70;;
77938;SDS011;67136;47.546;21.630;2023-03-14T08:10:27;4.97;;;2.58;;
77938;SDS011;67136;47.546;21.630;2023-03-14T08:13:30;6.15;;;2.42;;
77938;SDS011;67136;47.546;21.630;2023-03-14T08:16:33;4.77;;;2.00;;
77938;SDS011;67136;47.546;21.630;2023-03-14T08:19:36;4.40;;;1.67;;
77938;SDS011;67136;47.546;21.630;2023-03-14T08:22:38;3.95;;;2.00;;
77938;SDS011;67136;47.546;21.630;2023-03-14T08:25:41;2.78;;;1.73;;
77938;SDS011;67136;47.546;21.630;2023-03-14T08:28:44;3.42;;;1.90;;
77938;SDS011;67136;47.546;21.630;2023-03-14T08:31:46;3.80;;;1.63;;
77938;SDS011;67136;47.546;21.630;2023-03-14T08:34:51;2.72;;;1.77;;
77938;SDS011;67136;47.546;21.630;2023-03-14T08:37:53;4.93;;;2.22;;
77938;SDS011;67136;47.546;21.630;2023-03-14T08:40:57;9.45;;;1.80;;
77938;SDS011;67136;47.546;21.630;2023-03-14T08:44:01;3.00;;;1.90;;
77938;SDS011;67136;47.546;21.630;2023-03-14T08:47:04;3.97;;;1.70;;
77938;SDS011;67136;47.546;21.630;2023-03-14T08:50:07;4.87;;;2.05;;
77938;SDS011;67136;47.546;21.630;2023-03-14T08:53:12;4.35;;;2.25;;
77938;SDS011;67136;47.546;21.630;2023-03-14T08:56:15;5.47;;;2.15;;
77938;SDS011;67136;47.546;21.630;2023-03-14T08:59:17;8.70;;;2.03;;
77938;SDS011;67136;47.546;21.630;2023-03-14T09:02:20;5.00;;;2.20;;
77938;SDS011;67136;47.546;21.630;2023-03-14T09:05:23;5.30;;;1.90;;
77938;SDS011;67136;47.546;21.630;2023-03-14T09:08:25;3.90;;;1.90;;
77938;SDS011;67136;47.546;21.630;2023-03-14T09:11:28;4.70;;;1.70;;
77938;SDS011;67136;47.546;21.630;2023-03-14T09:14:30;3.20;;;1.83;;
77938;SDS011;67136;47.546;21.630;2023-03-14T09:17:34;4.00;;;2.00;;
77938;SDS011;67136;47.546;21.630;2023-03-14T09:20:36;7.03;;;1.90;;
77938;SDS011;67136;47.546;21.630;2023-03-14T09:23:39;3.33;;;1.80;;
77938;SDS011;67136;47.546;21.630;2023-03-14T09:26:42;3.50;;;1.90;;
77938;SDS011;67136;47.546;21.630;2023-03-14T09:29:45;2.97;;;1.62;;
77938;SDS011;67136;47.546;21.630;2023-03-14T09:32:47;3.73;;;1.90;;
77938;SDS011;67136;47.546;21.630;2023-03-14T09:35:50;10.00;;;1.62;;
77938;SDS011;67136;47.546;21.630;2023-03-14T09:38:53;2.78;;;1.90;;
77938;SDS011;67136;47.546;21.630;2023-03-14T09:41:56;3.00;;;1.52;;
77938;SDS011;67136;47.546;21.630;2023-03-14T09:45:02;4.37;;;1.92;;
77938;SDS011;67136;47.546;21.630;2023-03-14T09:48:12;5.47;;;1.70;;
77938;SDS011;67136;47.546;21.630;2023-03-14T09:51:19;4.22;;;1.77;;
77938;SDS011;67136;47.546;21.630;2023-03-14T09:54:30;4.50;;;1.87;;
77938;SDS011;67136;47.546;21.630;2023-03-14T09:57:39;6.47;;;2.37;;
77938;SDS011;67136;47.546;21.630;2023-03-14T10:00:43;9.18;;;2.33;;
77938;SDS011;67136;47.546;21.630;2023-03-14T10:03:46;9.80;;;2.10;;
77938;SDS011;67136;47.546;21.630;2023-03-14T10:06:49;4.37;;;2.15;;
77938;SDS011;67136;47.546;21.630;2023-03-14T10:09:52;3.83;;;1.55;;
77938;SDS011;67136;47.546;21.630;2023-03-14T10:16:16;3.28;;;2.08;;
77938;SDS011;67136;47.546;21.630;2023-03-14T10:19:19;5.67;;;2.00;;
77938;SDS011;67136;47.546;21.630;2023-03-14T10:22:23;5.65;;;2.10;;
77938;SDS011;67136;47.546;21.630;2023-03-14T10:25:33;3.60;;;2.00;;
77938;SDS011;67136;47.546;21.630;2023-03-14T10:31:56;3.65;;;2.20;;
77938;SDS011;67136;47.546;21.630;2023-03-14T10:38:17;4.90;;;2.55;;
77938;SDS011;67136;47.546;21.630;2023-03-14T10:41:25;6.75;;;2.33;;
77938;SDS011;67136;47.546;21.630;2023-03-14T10:44:33;6.93;;;2.33;;
77938;SDS011;67136;47.546;21.630;2023-03-14T10:47:38;6.55;;;2.20;;
77938;SDS011;67136;47.546;21.630;2023-03-14T10:50:58;5.63;;;2.10;;
77938;SDS011;67136;47.546;21.630;2023-03-14T10:54:14;6.12;;;2.45;;
77938;SDS011;67136;47.546;21.630;2023-03-14T10:57:21;8.52;;;2.70;;
77938;SDS011;67136;47.546;21.630;2023-03-14T11:00:24;5.15;;;2.20;;
77938;SDS011;67136;47.546;21.630;2023-03-14T11:03:27;2.72;;;1.77;;
77938;SDS011;67136;47.546;21.630;2023-03-14T11:13:39;9.73;;;2.30;;
77938;SDS011;67136;47.546;21.630;2023-03-14T11:26:59;6.15;;;2.55;;
77938;SDS011;67136;47.546;21.630;2023-03-14T11:33:38;3.78;;;2.35;;
77938;SDS011;67136;47.546;21.630;2023-03-14T11:40:26;4.67;;;2.67;;
77938;SDS011;67136;47.546;21.630;2023-03-14T11:43:33;4.87;;;2.50;;
77938;SDS011;67136;47.546;21.630;2023-03-14T11:46:43;5.87;;;2.30;;
77938;SDS011;67136;47.546;21.630;2023-03-14T11:50:15;5.65;;;2.37;;
77938;SDS011;67136;47.546;21.630;2023-03-14T11:53:31;5.18;;;2.55;;
77938;SDS011;67136;47.546;21.630;2023-03-14T11:56:53;2.80;;;2.17;;
77938;SDS011;67136;47.546;21.630;2023-03-14T12:00:04;6.97;;;2.25;;
77938;SDS011;67136;47.546;21.630;2023-03-14T12:06:44;10.05;;;2.35;;
77938;SDS011;67136;47.546;21.630;2023-03-14T12:09:51;3.70;;;2.22;;
77938;SDS011;67136;47.546;21.630;2023-03-14T12:12:56;4.60;;;2.17;;
77938;SDS011;67136;47.546;21.630;2023-03-14T12:16:00;7.47;;;2.83;;
77938;SDS011;67136;47.546;21.630;2023-03-14T12:19:14;5.95;;;2.10;;
77938;SDS011;67136;47.546;21.630;2023-03-14T12:22:28;14.45;;;2.30;;
77938;SDS011;67136;47.546;21.630;2023-03-14T12:25:33;8.70;;;2.20;;
77938;SDS011;67136;47.546;21.630;2023-03-14T12:28:37;10.80;;;2.10;;
77938;SDS011;67136;47.546;21.630;2023-03-14T12:34:43;5.50;;;1.73;;
77938;SDS011;67136;47.546;21.630;2023-03-14T12:37:47;4.45;;;1.90;;
77938;SDS011;67136;47.546;21.630;2023-03-14T12:41:04;8.77;;;1.70;;
77938;SDS011;67136;47.546;21.630;2023-03-14T12:50:43;6.82;;;2.00;;
77938;SDS011;67136;47.546;21.630;2023-03-14T13:00:32;3.73;;;1.90;;
77938;SDS011;67136;47.546;21.630;2023-03-14T13:03:47;4.03;;;2.10;;
77938;SDS011;67136;47.546;21.630;2023-03-14T13:06:55;3.05;;;1.77;;
77938;SDS011;67136;47.546;21.630;2023-03-14T13:10:04;4.53;;;2.10;;
77938;SDS011;67136;47.546;21.630;2023-03-14T13:13:19;3.67;;;2.00;;
77938;SDS011;67136;47.546;21.630;2023-03-14T13:16:23;2.47;;;1.80;;
77938;SDS011;67136;47.546;21.630;2023-03-14T13:19:27;5.90;;;2.12;;
77938;SDS011;67136;47.546;21.630;2023-03-14T13:22:32;7.30;;;1.98;;
77938;SDS011;67136;47.546;21.630;2023-03-14T13:25:42;4.72;;;2.05;;
77938;SDS011;67136;47.546;21.630;2023-03-14T13:28:44;6.00;;;2.37;;
77938;SDS011;67136;47.546;21.630;2023-03-14T13:31:48;4.27;;;2.13;;
77938;SDS011;67136;47.546;21.630;2023-03-14T13:34:57;3.80;;;1.87;;
77938;SDS011;67136;47.546;21.630;2023-03-14T13:38:01;3.67;;;2.00;;
77938;SDS011;67136;47.546;21.630;2023-03-14T13:41:13;4.90;;;1.80;;
77938;SDS011;67136;47.546;21.630;2023-03-14T13:44:32;3.90;;;2.10;;
77938;SDS011;67136;47.546;21.630;2023-03-14T13:47:37;4.43;;;1.57;;
77938;SDS011;67136;47.546;21.630;2023-03-14T13:54:16;6.87;;;2.05;;
77938;SDS011;67136;47.546;21.630;2023-03-14T13:57:20;7.05;;;1.77;;
77938;SDS011;67136;47.546;21.630;2023-03-14T14:00:24;4.87;;;1.62;;
77938;SDS011;67136;47.546;21.630;2023-03-14T14:03:33;3.73;;;1.90;;
77938;SDS011;67136;47.546;21.630;2023-03-14T14:06:39;3.55;;;1.98;;
77938;SDS011;67136;47.546;21.630;2023-03-14T14:09:52;3.08;;;1.92;;
77938;SDS011;67136;47.546;21.630;2023-03-14T14:13:00;7.03;;;1.95;;
77938;SDS011;67136;47.546;21.630;2023-03-14T14:16:05;4.40;;;2.10;;
77938;SDS011;67136;47.546;21.630;2023-03-14T14:19:08;3.77;;;2.13;;
77938;SDS011;67136;47.546;21.630;2023-03-14T14:22:12;6.45;;;1.98;;
77938;SDS011;67136;47.546;21.630;2023-03-14T14:25:15;4.22;;;2.10;;
77938;SDS011;67136;47.546;21.630;2023-03-14T14:28:26;6.32;;;2.05;;
77938;SDS011;67136;47.546;21.630;2023-03-14T14:31:33;7.22;;;1.90;;
77938;SDS011;67136;47.546;21.630;2023-03-14T14:34:40;4.23;;;1.70;;
77938;SDS011;67136;47.546;21.630;2023-03-14T14:37:52;4.57;;;1.70;;
77938;SDS011;67136;47.546;21.630;2023-03-14T14:40:58;2.37;;;1.60;;
77938;SDS011;67136;47.546;21.630;2023-03-14T14:44:03;3.87;;;2.05;;
77938;SDS011;67136;47.546;21.630;2023-03-14T14:47:06;4.03;;;1.70;;
77938;SDS011;67136;47.546;21.630;2023-03-14T14:50:28;6.43;;;2.60;;
77938;SDS011;67136;47.546;21.630;2023-03-14T14:53:36;6.28;;;2.10;;
77938;SDS011;67136;47.546;21.630;2023-03-14T14:56:47;4.12;;;1.85;;
77938;SDS011;67136;47.546;21.630;2023-03-14T14:59:54;2.78;;;2.10;;
77938;SDS011;67136;47.546;21.630;2023-03-14T15:03:00;6.05;;;2.03;;
77938;SDS011;67136;47.546;21.630;2023-03-14T15:06:04;4.20;;;2.17;;
77938;SDS011;67136;47.546;21.630;2023-03-14T15:09:08;3.58;;;1.52;;
77938;SDS011;67136;47.546;21.630;2023-03-14T15:12:12;4.55;;;1.90;;
77938;SDS011;67136;47.546;21.630;2023-03-14T15:15:15;4.72;;;1.73;;
77938;SDS011;67136;47.546;21.630;2023-03-14T15:18:19;3.53;;;1.90;;
77938;SDS011;67136;47.546;21.630;2023-03-14T15:21:22;4.27;;;2.57;;
77938;SDS011;67136;47.546;21.630;2023-03-14T15:24:25;4.00;;;1.85;;
77938;SDS011;67136;47.546;21.630;2023-03-14T15:27:28;3.25;;;1.95;;
77938;SDS011;67136;47.546;21.630;2023-03-14T15:30:33;5.15;;;2.00;;
77938;SDS011;67136;47.546;21.630;2023-03-14T15:33:35;3.87;;;2.22;;
77938;SDS011;67136;47.546;21.630;2023-03-14T15:36:38;4.83;;;2.30;;
77938;SDS011;67136;47.546;21.630;2023-03-14T15:39:42;3.78;;;2.12;;
77938;SDS011;67136;47.546;21.630;2023-03-14T15:42:45;5.80;;;2.12;;
77938;SDS011;67136;47.546;21.630;2023-03-14T15:45:48;5.32;;;1.92;;
77938;SDS011;67136;47.546;21.630;2023-03-14T15:48:52;6.22;;;1.95;;
77938;SDS011;67136;47.546;21.630;2023-03-14T15:51:55;4.13;;;1.90;;
77938;SDS011;67136;47.546;21.630;2023-03-14T15:54:59;7.47;;;2.15;;
77938;SDS011;67136;47.546;21.630;2023-03-14T15:58:02;6.57;;;2.33;;
77938;SDS011;67136;47.546;21.630;2023-03-14T16:01:04;6.10;;;3.40;;
77938;SDS011;67136;47.546;21.630;2023-03-14T16:04:07;3.62;;;2.40;;
77938;SDS011;67136;47.546;21.630;2023-03-14T16:07:10;7.33;;;2.67;;
77938;SDS011;67136;47.546;21.630;2023-03-14T16:10:13;13.88;;;2.95;;
77938;SDS011;67136;47.546;21.630;2023-03-14T16:13:17;7.40;;;2.22;;
77938;SDS011;67136;47.546;21.630;2023-03-14T16:16:20;8.18;;;3.28;;
77938;SDS011;67136;47.546;21.630;2023-03-14T16:19:23;10.25;;;2.95;;
77938;SDS011;67136;47.546;21.630;2023-03-14T16:22:29;6.93;;;2.87;;
77938;SDS011;67136;47.546;21.630;2023-03-14T16:25:36;5.20;;;2.90;;
77938;SDS011;67136;47.546;21.630;2023-03-14T16:28:39;6.93;;;3.08;;
77938;SDS011;67136;47.546;21.630;2023-03-14T16:31:42;8.40;;;2.83;;
77938;SDS011;67136;47.546;21.630;2023-03-14T16:34:46;3.58;;;2.40;;
77938;SDS011;67136;47.546;21.630;2023-03-14T16:37:48;6.10;;;2.50;;
77938;SDS011;67136;47.546;21.630;2023-03-14T16:40:54;4.93;;;2.83;;
77938;SDS011;67136;47.546;21.630;2023-03-14T16:44:01;6.30;;;2.70;;
77938;SDS011;67136;47.546;21.630;2023-03-14T16:47:04;5.70;;;2.55;;
77938;SDS011;67136;47.546;21.630;2023-03-14T16:50:11;4.50;;;2.37;;
77938;SDS011;67136;47.546;21.630;2023-03-14T16:53:14;4.17;;;2.53;;
77938;SDS011;67136;47.546;21.630;2023-03-14T16:56:17;6.70;;;2.58;;
77938;SDS011;67136;47.546;21.630;2023-03-14T16:59:20;4.78;;;2.50;;
77938;SDS011;67136;47.546;21.630;2023-03-14T17:02:22;5.75;;;2.50;;
77938;SDS011;67136;47.546;21.630;2023-03-14T17:05:25;7.32;;;2.30;;
77938;SDS011;67136;47.546;21.630;2023-03-14T17:08:28;4.93;;;2.40;;
77938;SDS011;67136;47.546;21.630;2023-03-14T17:11:31;5.30;;;2.60;;
77938;SDS011;67136;47.546;21.630;2023-03-14T17:14:34;6.50;;;2.28;;
77938;SDS011;67136;47.546;21.630;2023-03-14T17:17:37;3.53;;;2.10;;
77938;SDS011;67136;47.546;21.630;2023-03-14T17:20:39;5.37;;;2.08;;
77938;SDS011;67136;47.546;21.630;2023-03-14T17:23:42;5.67;;;2.20;;
77938;SDS011;67136;47.546;21.630;2023-03-14T17:26:45;5.10;;;2.40;;
77938;SDS011;67136;47.546;21.630;2023-03-14T17:29:48;6.82;;;2.33;;
77938;SDS011;67136;47.546;21.630;2023-03-14T17:32:50;5.80;;;2.35;;
77938;SDS011;67136;47.546;21.630;2023-03-14T17:35:53;6.65;;;2.37;;
77938;SDS011;67136;47.546;21.630;2023-03-14T17:38:56;6.93;;;2.80;;
77938;SDS011;67136;47.546;21.630;2023-03-14T17:41:59;4.57;;;2.70;;
77938;SDS011;67136;47.546;21.630;2023-03-14T17:45:02;6.12;;;3.03;;
77938;SDS011;67136;47.546;21.630;2023-03-14T17:48:05;4.32;;;2.70;;
77938;SDS011;67136;47.546;21.630;2023-03-14T17:51:07;5.35;;;3.03;;
77938;SDS011;67136;47.546;21.630;2023-03-14T17:54:10;4.83;;;2.40;;
77938;SDS011;67136;47.546;21.630;2023-03-14T17:57:13;4.95;;;2.60;;
77938;SDS011;67136;47.546;21.630;2023-03-14T18:00:16;10.13;;;2.60;;
77938;SDS011;67136;47.546;21.630;2023-03-14T18:03:19;6.82;;;2.70;;
77938;SDS011;67136;47.546;21.630;2023-03-14T18:06:23;5.85;;;2.70;;
77938;SDS011;67136;47.546;21.630;2023-03-14T18:09:28;4.40;;;2.87;;
77938;SDS011;67136;47.546;21.630;2023-03-14T18:12:31;4.87;;;2.17;;
77938;SDS011;67136;47.546;21.630;2023-03-14T18:15:35;4.72;;;2.50;;
77938;SDS011;67136;47.546;21.630;2023-03-14T18:18:37;6.93;;;2.40;;
77938;SDS011;67136;47.546;21.630;2023-03-14T18:21:39;3.78;;;2.20;;
77938;SDS011;67136;47.546;21.630;2023-03-14T18:24:42;8.77;;;2.50;;
77938;SDS011;67136;47.546;21.630;2023-03-14T18:27:45;4.97;;;2.40;;
77938;SDS011;67136;47.546;21.630;2023-03-14T18:30:47;12.13;;;3.15;;
77938;SDS011;67136;47.546;21.630;2023-03-14T18:33:53;7.00;;;2.70;;
77938;SDS011;67136;47.546;21.630;2023-03-14T18:36:58;6.25;;;2.87;;
77938;SDS011;67136;47.546;21.630;2023-03-14T18:40:02;8.20;;;3.07;;
77938;SDS011;67136;47.546;21.630;2023-03-14T18:43:07;6.28;;;2.97;;
77938;SDS011;67136;47.546;21.630;2023-03-14T18:46:10;5.35;;;2.87;;
77938;SDS011;67136;47.546;21.630;2023-03-14T18:49:13;5.32;;;2.60;;
77938;SDS011;67136;47.546;21.630;2023-03-14T18:52:16;4.62;;;2.45;;
77938;SDS011;67136;47.546;21.630;2023-03-14T18:55:18;4.17;;;2.50;;
77938;SDS011;67136;47.546;21.630;2023-03-14T18:58:21;4.35;;;2.67;;
77938;SDS011;67136;47.546;21.630;2023-03-14T19:01:29;5.70;;;2.78;;
77938;SDS011;67136;47.546;21.630;2023-03-14T19:04:32;5.00;;;2.30;;
77938;SDS011;67136;47.546;21.630;2023-03-14T19:07:35;6.18;;;2.97;;
77938;SDS011;67136;47.546;21.630;2023-03-14T19:10:38;4.93;;;2.47;;
77938;SDS011;67136;47.546;21.630;2023-03-14T19:13:40;3.47;;;2.35;;
77938;SDS011;67136;47.546;21.630;2023-03-14T19:16:43;3.72;;;2.35;;